createdAt,value
2023-01-27T00:00:58.101Z,57.15
2023-01-27T00:03:26.068Z,57.17
2023-01-27T00:05:53.793Z,57.62
2023-01-27T00:08:21.769Z,57.69
2023-01-27T00:11:12.380Z,57.56
2023-01-27T00:13:39.935Z,57.67
2023-01-27T00:16:07.933Z,57.86
2023-01-27T00:18:35.555Z,57.62
2023-01-27T00:21:23.216Z,57.67
2023-01-27T00:24:10.071Z,58.00
2023-01-27T00:26:37.462Z,58.11
2023-01-27T00:29:05.360Z,57.85
2023-01-27T00:31:51.498Z,57.87
2023-01-27T00:34:19.408Z,57.46
2023-01-27T00:36:46.811Z,57.31
2023-01-27T00:39:14.313Z,56.80
2023-01-27T00:41:43.953Z,56.04
2023-01-27T00:44:13.382Z,55.01
2023-01-27T00:46:42.111Z,55.21
2023-01-27T00:49:10.853Z,56.05
2023-01-27T00:51:38.421Z,56.77
2023-01-27T00:54:06.146Z,56.74
2023-01-27T00:56:34.133Z,56.64
2023-01-27T00:59:01.697Z,55.81
2023-01-27T01:01:29.649Z,55.87
2023-01-27T01:04:00.935Z,56.39
2023-01-27T01:06:28.840Z,56.12
2023-01-27T01:08:57.737Z,55.41
2023-01-27T01:11:25.679Z,55.61
2023-01-27T01:13:55.854Z,56.13
2023-01-27T01:16:25.120Z,56.25
2023-01-27T01:18:53.218Z,56.23
2023-01-27T01:21:21.311Z,56.58
2023-01-27T01:23:49.375Z,56.89
2023-01-27T01:26:17.701Z,56.70
2023-01-27T01:28:45.980Z,56.29
2023-01-27T01:31:18.684Z,56.69
2023-01-27T01:33:47.521Z,56.59
2023-01-27T01:36:18.446Z,56.56
2023-01-27T01:38:46.617Z,56.47
2023-01-27T01:41:18.418Z,55.87
2023-01-27T01:43:47.034Z,55.70
2023-01-27T01:46:14.840Z,55.79
2023-01-27T01:49:03.715Z,55.71
2023-01-27T01:51:39.509Z,55.71
2023-01-27T01:54:09.458Z,55.66
2023-01-27T01:56:45.078Z,54.38
2023-01-27T01:59:16.142Z,53.67
2023-01-27T02:01:43.945Z,54.10
2023-01-27T02:04:18.765Z,54.44
2023-01-27T02:06:54.318Z,54.87
2023-01-27T02:09:22.578Z,54.94
2023-01-27T02:11:50.782Z,55.64
2023-01-27T02:14:18.898Z,55.49
2023-01-27T02:16:46.819Z,55.58
2023-01-27T02:19:24.628Z,56.00
2023-01-27T02:21:55.569Z,56.05
2023-01-27T02:24:26.915Z,55.94
2023-01-27T02:26:54.788Z,55.94
2023-01-27T02:29:22.983Z,56.43
2023-01-27T02:31:50.415Z,56.03
2023-01-27T02:34:21.873Z,56.22
2023-01-27T02:36:58.386Z,56.44
2023-01-27T02:39:34.322Z,56.29
2023-01-27T02:42:04.718Z,56.45
2023-01-27T02:44:33.134Z,55.99
2023-01-27T02:47:02.362Z,56.26
2023-01-27T02:49:29.812Z,56.39
2023-01-27T02:51:57.724Z,56.11
2023-01-27T02:54:26.507Z,55.90
2023-01-27T02:56:54.784Z,56.44
2023-01-27T02:59:23.047Z,56.09
2023-01-27T03:01:51.181Z,56.11
2023-01-27T03:04:19.900Z,55.68
2023-01-27T03:06:48.376Z,56.12
2023-01-27T03:09:15.783Z,55.80
2023-01-27T03:12:01.884Z,55.65
2023-01-27T03:14:48.551Z,55.50
2023-01-27T03:17:34.931Z,55.72
2023-01-27T03:20:03.556Z,55.67
2023-01-27T03:22:31.175Z,55.93
2023-01-27T03:25:00.046Z,55.69
2023-01-27T03:27:28.264Z,55.98
2023-01-27T03:29:58.468Z,55.95
2023-01-27T03:32:28.627Z,55.29
2023-01-27T03:34:58.869Z,56.07
2023-01-27T03:37:47.536Z,56.35
2023-01-27T03:40:35.710Z,56.76
2023-01-27T03:43:21.814Z,57.21
2023-01-27T03:46:09.322Z,57.45
2023-01-27T03:48:37.491Z,57.56
2023-01-27T03:51:07.332Z,57.23
2023-01-27T03:53:35.551Z,56.99
2023-01-27T03:56:04.232Z,57.09
2023-01-27T03:58:36.806Z,57.38
2023-01-27T04:01:05.239Z,57.30
2023-01-27T04:03:53.073Z,57.50
2023-01-27T04:06:42.520Z,57.33
2023-01-27T04:09:12.441Z,57.42
2023-01-27T04:11:55.067Z,57.68
2023-01-27T04:14:24.000Z,57.89
2023-01-27T04:16:53.384Z,57.85
2023-01-27T04:19:21.108Z,57.72
2023-01-27T04:21:49.877Z,57.62
2023-01-27T04:24:17.687Z,57.53
2023-01-27T04:26:46.445Z,57.69
2023-01-27T04:29:14.355Z,57.37
2023-01-27T04:31:42.561Z,57.41
2023-01-27T04:34:11.436Z,57.67
2023-01-27T04:36:40.585Z,57.57
2023-01-27T04:39:09.231Z,57.66
2023-01-27T04:41:37.405Z,57.35
2023-01-27T04:44:07.101Z,56.98
2023-01-27T04:46:34.708Z,57.05
2023-01-27T04:49:02.720Z,57.13
2023-01-27T04:51:30.944Z,56.50
2023-01-27T04:53:58.371Z,56.53
2023-01-27T04:56:31.910Z,56.18
2023-01-27T04:59:01.832Z,56.33
2023-01-27T05:01:29.678Z,55.90
2023-01-27T05:03:57.226Z,55.92
2023-01-27T05:06:25.613Z,55.93
2023-01-27T05:08:53.453Z,55.59
2023-01-27T05:11:21.734Z,55.54
2023-01-27T05:13:49.528Z,55.47
2023-01-27T05:16:19.405Z,55.60
2023-01-27T05:18:48.658Z,55.77
2023-01-27T05:21:19.185Z,55.50
2023-01-27T05:23:47.337Z,55.62
2023-01-27T05:26:18.562Z,55.70
2023-01-27T05:28:47.347Z,55.57
2023-01-27T05:31:20.597Z,55.50
2023-01-27T05:33:50.371Z,55.46
2023-01-27T05:36:19.603Z,55.67
2023-01-27T05:38:48.178Z,56.04
2023-01-27T05:41:16.973Z,55.99
2023-01-27T05:43:45.811Z,56.13
2023-01-27T05:46:18.916Z,56.50
2023-01-27T05:48:49.022Z,56.65
2023-01-27T05:51:18.959Z,56.75
2023-01-27T05:53:47.043Z,56.56
2023-01-27T05:56:16.959Z,56.49
2023-01-27T05:58:45.631Z,57.52
2023-01-27T06:01:20.883Z,57.39
2023-01-27T06:03:49.193Z,56.66
2023-01-27T06:06:19.645Z,56.92
2023-01-27T06:08:47.444Z,57.13
2023-01-27T06:11:16.731Z,57.50
2023-01-27T06:13:44.393Z,56.73
2023-01-27T06:16:15.022Z,57.56
2023-01-27T06:18:43.113Z,57.23
2023-01-27T06:21:11.514Z,57.19
2023-01-27T06:23:39.674Z,57.18
2023-01-27T06:26:10.365Z,57.55
2023-01-27T06:28:39.065Z,57.62
2023-01-27T06:31:13.834Z,57.78
2023-01-27T06:33:41.745Z,57.54
2023-01-27T06:36:11.781Z,57.96
2023-01-27T06:38:39.220Z,58.02
2023-01-27T06:41:07.448Z,57.71
2023-01-27T06:43:35.186Z,58.56
2023-01-27T06:46:05.530Z,58.39
2023-01-27T06:48:34.095Z,58.42
2023-01-27T06:51:01.926Z,58.34
2023-01-27T06:53:29.651Z,57.93
2023-01-27T06:55:58.796Z,58.87
2023-01-27T06:58:27.465Z,58.86
2023-01-27T07:00:55.646Z,57.91
2023-01-27T07:03:23.982Z,57.97
2023-01-27T07:05:52.373Z,58.61
2023-01-27T07:08:19.918Z,57.35
2023-01-27T07:10:47.606Z,56.73
2023-01-27T07:13:15.727Z,56.22
2023-01-27T07:15:43.608Z,55.87
2023-01-27T07:18:13.777Z,55.43
2023-01-27T07:20:41.744Z,54.26
2023-01-27T07:23:10.738Z,53.95
2023-01-27T07:25:39.444Z,54.20
2023-01-27T07:28:07.188Z,53.85
2023-01-27T07:30:35.053Z,53.69
2023-01-27T07:33:07.738Z,53.36
2023-01-27T07:35:35.722Z,53.34
2023-01-27T07:38:03.976Z,52.86
2023-01-27T07:40:31.582Z,53.34
2023-01-27T07:42:59.792Z,52.14
2023-01-27T07:45:28.926Z,52.22
2023-01-27T07:48:01.343Z,51.79
2023-01-27T07:50:29.510Z,51.73
2023-01-27T07:53:01.608Z,51.66
2023-01-27T07:55:30.213Z,52.04
2023-01-27T07:57:57.802Z,51.81
2023-01-27T08:00:25.424Z,52.07
2023-01-27T08:02:54.174Z,53.24
2023-01-27T08:05:22.955Z,52.67
2023-01-27T08:07:51.261Z,50.19
2023-01-27T08:10:19.884Z,50.00
2023-01-27T08:12:47.897Z,51.72
2023-01-27T08:15:18.699Z,50.34
2023-01-27T08:17:57.300Z,50.69
2023-01-27T08:20:26.489Z,48.62
2023-01-27T08:22:54.576Z,49.53
2023-01-27T08:25:22.303Z,50.64
2023-01-27T08:27:54.328Z,49.58
2023-01-27T08:30:23.061Z,48.76
2023-01-27T08:32:50.498Z,50.93
2023-01-27T08:35:18.116Z,51.38
2023-01-27T08:37:48.406Z,50.94
2023-01-27T08:40:17.045Z,51.26
2023-01-27T08:42:44.661Z,51.12
2023-01-27T08:45:12.934Z,51.20
2023-01-27T08:47:40.318Z,51.28
2023-01-27T08:50:09.352Z,48.78
2023-01-27T08:52:37.233Z,48.09
2023-01-27T08:55:05.256Z,47.66
2023-01-27T08:57:34.238Z,48.00
2023-01-27T09:00:05.179Z,48.20
2023-01-27T09:02:32.944Z,48.82
2023-01-27T09:05:00.613Z,47.59
2023-01-27T09:07:28.441Z,46.79
2023-01-27T09:10:07.693Z,46.77
2023-01-27T09:12:41.385Z,47.27
2023-01-27T09:15:09.502Z,49.52
2023-01-27T09:17:37.322Z,49.88
2023-01-27T09:20:05.736Z,49.86
2023-01-27T09:22:33.239Z,48.64
2023-01-27T09:25:00.861Z,47.64
2023-01-27T09:27:38.845Z,46.68
2023-01-27T09:30:09.099Z,45.40
2023-01-27T09:32:37.780Z,46.46
2023-01-27T09:35:06.022Z,45.33
2023-01-27T09:37:57.177Z,44.17
2023-01-27T09:40:43.594Z,44.46
2023-01-27T09:43:42.165Z,45.15
2023-01-27T09:46:47.389Z,46.62
2023-01-27T09:49:39.838Z,45.38
2023-01-27T09:52:45.428Z,47.01
2023-01-27T09:55:36.186Z,46.82
2023-01-27T09:58:39.753Z,47.24
2023-01-27T10:01:48.959Z,47.80
2023-01-27T10:04:35.630Z,48.16
2023-01-27T10:07:21.936Z,48.51
2023-01-27T10:10:08.449Z,48.86
2023-01-27T10:13:14.150Z,50.79
2023-01-27T10:15:56.665Z,50.99
2023-01-27T10:18:40.307Z,50.27
2023-01-27T10:21:53.530Z,50.29
2023-01-27T10:24:42.590Z,52.99
2023-01-27T10:27:18.027Z,51.51
2023-01-27T10:30:00.117Z,50.62
2023-01-27T10:32:32.596Z,50.82
2023-01-27T10:35:09.676Z,50.81
2023-01-27T10:37:43.881Z,51.07
2023-01-27T10:40:36.714Z,51.05
2023-01-27T10:43:16.843Z,52.27
2023-01-27T10:45:52.502Z,52.46
2023-01-27T10:48:30.581Z,52.97
2023-01-27T10:51:20.217Z,51.85
2023-01-27T10:53:58.266Z,52.77
2023-01-27T10:56:52.198Z,52.75
2023-01-27T10:59:38.794Z,53.69
2023-01-27T11:02:09.524Z,54.24
2023-01-27T11:04:43.100Z,54.76
2023-01-27T11:07:16.774Z,55.39
2023-01-27T11:09:49.587Z,55.60
2023-01-27T11:12:20.662Z,55.42
2023-01-27T11:14:51.267Z,55.15
2023-01-27T11:17:29.122Z,55.41
2023-01-27T11:20:04.850Z,55.74
2023-01-27T11:22:47.728Z,55.43
2023-01-27T11:25:27.059Z,54.89
2023-01-27T11:28:17.781Z,56.04
2023-01-27T11:31:10.906Z,57.32
2023-01-27T11:34:06.532Z,57.18
2023-01-27T11:36:35.029Z,57.13
2023-01-27T11:39:04.818Z,58.81
2023-01-27T11:41:46.568Z,58.50
2023-01-27T11:44:30.149Z,57.71
2023-01-27T11:46:58.015Z,57.96
2023-01-27T11:49:35.380Z,57.79
2023-01-27T11:52:29.279Z,57.22
2023-01-27T11:55:00.188Z,58.08
2023-01-27T11:57:28.358Z,58.46
2023-01-27T12:00:00.170Z,57.42
2023-01-27T12:02:31.001Z,57.13
2023-01-27T12:05:09.672Z,58.01
2023-01-27T12:07:49.981Z,58.63
2023-01-27T12:10:35.481Z,58.57
2023-01-27T12:13:17.646Z,58.10
2023-01-27T12:15:47.984Z,58.46
2023-01-27T12:18:16.212Z,60.54
2023-01-27T12:20:45.406Z,61.18
2023-01-27T12:23:26.651Z,59.24
2023-01-27T12:25:59.517Z,59.01
2023-01-27T12:28:33.025Z,57.93
2023-01-27T12:31:27.645Z,58.92
2023-01-27T12:34:08.300Z,56.29
2023-01-27T12:36:43.635Z,57.41
2023-01-27T12:39:30.027Z,56.54
2023-01-27T12:41:57.851Z,58.49
2023-01-27T12:44:29.325Z,56.47
2023-01-27T12:47:00.863Z,57.94
2023-01-27T12:49:38.060Z,55.84
2023-01-27T12:52:08.551Z,56.66
2023-01-27T12:54:36.390Z,55.71
2023-01-27T12:57:15.577Z,56.02
2023-01-27T12:59:51.495Z,56.64
2023-01-27T13:02:21.064Z,57.01
2023-01-27T13:04:55.106Z,54.93
2023-01-27T13:07:29.824Z,54.90
2023-01-27T13:10:04.045Z,54.57
2023-01-27T13:12:38.191Z,55.87
2023-01-27T13:15:16.188Z,55.44
2023-01-27T13:17:46.561Z,55.40
2023-01-27T13:20:36.815Z,58.95
2023-01-27T13:23:26.896Z,57.83
2023-01-27T13:25:59.285Z,56.67
2023-01-27T13:28:46.130Z,57.47
2023-01-27T13:32:17.545Z,57.79
2023-01-27T13:35:00.587Z,57.32
2023-01-27T13:37:33.602Z,57.50
2023-01-27T13:40:24.305Z,56.92
2023-01-27T13:42:57.979Z,58.11
2023-01-27T13:45:33.292Z,57.29
2023-01-27T13:48:25.072Z,56.88
2023-01-27T13:50:58.759Z,56.80
2023-01-27T13:53:26.466Z,57.47
2023-01-27T13:56:31.252Z,57.10
2023-01-27T13:59:20.937Z,57.24
2023-01-27T14:02:06.604Z,56.78
2023-01-27T14:04:56.293Z,56.59
2023-01-27T14:07:32.807Z,56.44
2023-01-27T14:10:19.215Z,55.25
2023-01-27T14:13:18.960Z,53.48
2023-01-27T14:16:07.960Z,52.70
2023-01-27T14:19:01.719Z,52.91
2023-01-27T14:21:58.873Z,52.91
2023-01-27T14:24:43.728Z,52.82
2023-01-27T14:27:35.599Z,53.75
2023-01-27T14:30:15.765Z,54.47
2023-01-27T14:32:56.243Z,52.71
2023-01-27T14:35:40.851Z,52.72
2023-01-27T14:38:30.348Z,52.63
2023-01-27T14:41:19.840Z,52.61
2023-01-27T14:44:09.349Z,52.99
2023-01-27T14:47:12.284Z,53.79
2023-01-27T14:50:06.320Z,53.66
2023-01-27T14:52:45.110Z,54.05
2023-01-27T14:55:33.291Z,53.48
2023-01-27T14:58:22.774Z,53.07
2023-01-27T15:01:02.852Z,53.44
2023-01-27T15:03:48.854Z,53.74
2023-01-27T15:06:29.612Z,53.44
2023-01-27T15:09:20.272Z,54.42
2023-01-27T15:12:00.969Z,56.63
2023-01-27T15:14:44.231Z,56.41
2023-01-27T15:17:21.025Z,55.65
2023-01-27T15:20:11.903Z,54.80
2023-01-27T15:22:54.910Z,56.17
2023-01-27T15:25:31.042Z,56.37
2023-01-27T15:28:00.314Z,56.63
2023-01-27T15:30:34.893Z,56.67
2023-01-27T15:33:02.956Z,55.97
2023-01-27T15:35:37.985Z,55.65
2023-01-27T15:38:08.177Z,55.29
2023-01-27T15:41:13.918Z,55.00
2023-01-27T15:44:04.119Z,55.90
2023-01-27T15:46:36.087Z,55.77
2023-01-27T15:49:05.196Z,54.73
2023-01-27T15:51:36.222Z,56.44
2023-01-27T15:54:04.467Z,56.68
2023-01-27T15:56:43.091Z,55.07
2023-01-27T15:59:17.503Z,56.75
2023-01-27T16:01:47.839Z,57.10
2023-01-27T16:04:16.854Z,56.46
2023-01-27T16:06:48.620Z,56.14
2023-01-27T16:09:34.081Z,55.78
2023-01-27T16:12:27.343Z,56.95
2023-01-27T16:15:00.895Z,56.68
2023-01-27T16:17:32.854Z,57.68
2023-01-27T16:20:25.248Z,57.21
2023-01-27T16:23:02.043Z,57.14
2023-01-27T16:25:43.260Z,57.01
2023-01-27T16:28:23.710Z,56.41
2023-01-27T16:31:00.525Z,57.20
2023-01-27T16:33:48.453Z,57.87
2023-01-27T16:36:21.054Z,57.60
2023-01-27T16:38:48.458Z,56.63
2023-01-27T16:41:28.952Z,56.31
2023-01-27T16:44:03.038Z,57.25
2023-01-27T16:46:39.962Z,56.46
2023-01-27T16:49:14.132Z,57.12
2023-01-27T16:51:42.337Z,56.26
2023-01-27T16:54:25.197Z,57.31
2023-01-27T16:56:52.865Z,58.29
2023-01-27T16:59:26.815Z,57.88
2023-01-27T17:01:59.794Z,58.46
2023-01-27T17:04:28.359Z,57.37
2023-01-27T17:07:07.011Z,56.23
2023-01-27T17:09:40.750Z,57.33
2023-01-27T17:12:31.090Z,58.80
2023-01-27T17:14:59.646Z,58.05
2023-01-27T17:17:29.912Z,58.74
2023-01-27T17:20:05.892Z,59.08
2023-01-27T17:22:39.437Z,58.37
2023-01-27T17:25:25.507Z,58.14
2023-01-27T17:27:53.347Z,58.06
2023-01-27T17:30:24.153Z,57.61
2023-01-27T17:32:54.347Z,57.02
2023-01-27T17:35:43.089Z,56.69
2023-01-27T17:38:20.094Z,56.70
2023-01-27T17:40:49.730Z,57.19
2023-01-27T17:43:34.741Z,57.50
2023-01-27T17:46:05.679Z,57.91
2023-01-27T17:48:35.102Z,58.05
2023-01-27T17:51:02.910Z,58.56
2023-01-27T17:53:32.684Z,57.88
2023-01-27T17:56:00.860Z,58.25
2023-01-27T17:58:28.704Z,58.06
2023-01-27T18:00:56.564Z,58.91
2023-01-27T18:03:32.818Z,58.15
2023-01-27T18:06:02.362Z,58.25
2023-01-27T18:08:35.157Z,58.49
2023-01-27T18:11:31.419Z,59.15
2023-01-27T18:14:09.181Z,59.35
2023-01-27T18:16:36.788Z,59.67
2023-01-27T18:19:19.339Z,59.17
2023-01-27T18:21:47.258Z,59.23
2023-01-27T18:24:23.318Z,59.43
2023-01-27T18:26:51.054Z,58.59
2023-01-27T18:29:45.164Z,59.34
2023-01-27T18:32:19.464Z,60.11
2023-01-27T18:34:55.840Z,59.47
2023-01-27T18:37:32.951Z,59.34
2023-01-27T18:40:02.496Z,59.45
2023-01-27T18:42:31.749Z,60.47
2023-01-27T18:44:59.430Z,59.74
2023-01-27T18:47:34.363Z,59.89
2023-01-27T18:50:07.472Z,59.21
2023-01-27T18:52:35.700Z,58.67
2023-01-27T18:55:17.125Z,59.29
2023-01-27T18:57:46.584Z,59.20
2023-01-27T19:00:37.888Z,59.74
2023-01-27T19:03:12.023Z,59.73
2023-01-27T19:05:40.483Z,59.71
2023-01-27T19:08:13.571Z,59.07
2023-01-27T19:10:41.585Z,60.27
2023-01-27T19:13:09.988Z,59.46
2023-01-27T19:15:40.043Z,59.38
2023-01-27T19:18:15.156Z,59.41
2023-01-27T19:20:43.313Z,58.95
2023-01-27T19:23:14.194Z,59.48
2023-01-27T19:25:42.348Z,59.77
2023-01-27T19:28:21.167Z,58.44
2023-01-27T19:30:48.635Z,57.85
2023-01-27T19:33:22.732Z,58.89
2023-01-27T19:36:16.873Z,59.15
2023-01-27T19:38:44.813Z,58.35
2023-01-27T19:41:12.597Z,58.16
2023-01-27T19:43:41.900Z,58.71
2023-01-27T19:46:14.425Z,58.66
2023-01-27T19:48:42.216Z,60.05
2023-01-27T19:51:11.729Z,58.35
2023-01-27T19:53:39.328Z,58.43
2023-01-27T19:56:16.046Z,58.96
2023-01-27T19:58:52.844Z,58.71
2023-01-27T20:01:23.463Z,59.52
2023-01-27T20:03:52.680Z,59.07
2023-01-27T20:06:26.706Z,58.39
2023-01-27T20:08:56.649Z,58.74
2023-01-27T20:11:37.212Z,58.89
2023-01-27T20:14:15.556Z,58.25
2023-01-27T20:16:43.580Z,58.81
2023-01-27T20:19:15.801Z,59.21
2023-01-27T20:21:44.807Z,58.34
2023-01-27T20:24:15.051Z,59.29
2023-01-27T20:26:42.607Z,58.96
2023-01-27T20:29:10.217Z,57.86
2023-01-27T20:31:39.067Z,59.01
2023-01-27T20:34:07.144Z,59.09
2023-01-27T20:36:34.666Z,59.24
2023-01-27T20:39:02.794Z,59.52
2023-01-27T20:41:30.205Z,58.71
2023-01-27T20:44:00.428Z,58.90
2023-01-27T20:46:29.179Z,59.54
2023-01-27T20:48:58.596Z,60.24
2023-01-27T20:51:26.248Z,60.83
2023-01-27T20:53:54.075Z,60.56
2023-01-27T20:56:23.641Z,60.27
2023-01-27T20:58:51.467Z,59.79
2023-01-27T21:01:22.141Z,59.22
2023-01-27T21:03:50.727Z,59.00
2023-01-27T21:06:20.086Z,59.10
2023-01-27T21:08:49.428Z,58.76
2023-01-27T21:11:18.839Z,59.45
2023-01-27T21:13:46.839Z,60.41
2023-01-27T21:16:15.068Z,61.22
2023-01-27T21:18:44.148Z,60.32
2023-01-27T21:21:27.300Z,59.89
2023-01-27T21:23:55.800Z,60.11
2023-01-27T21:26:23.911Z,59.48
2023-01-27T21:28:51.849Z,59.53
2023-01-27T21:31:21.283Z,59.97
2023-01-27T21:33:50.186Z,60.88
2023-01-27T21:36:18.523Z,60.04
2023-01-27T21:38:46.824Z,59.92
2023-01-27T21:41:45.752Z,59.49
2023-01-27T21:44:35.377Z,60.08
2023-01-27T21:47:03.284Z,59.95
2023-01-27T21:49:34.303Z,59.55
2023-01-27T21:52:01.861Z,59.99
2023-01-27T21:54:29.611Z,58.95
2023-01-27T21:56:57.446Z,58.53
2023-01-27T21:59:24.967Z,59.00
2023-01-27T22:01:55.283Z,58.99
2023-01-27T22:04:23.197Z,58.63
2023-01-27T22:06:50.873Z,59.35
2023-01-27T22:09:24.232Z,60.57
2023-01-27T22:11:52.085Z,60.77
2023-01-27T22:14:19.630Z,59.51
2023-01-27T22:16:47.135Z,59.11
2023-01-27T22:19:15.041Z,59.20
2023-01-27T22:21:42.546Z,58.92
2023-01-27T22:24:10.268Z,59.20
2023-01-27T22:26:38.272Z,59.84
2023-01-27T22:29:05.731Z,59.95
2023-01-27T22:31:33.191Z,60.37
2023-01-27T22:34:01.187Z,59.34
2023-01-27T22:36:28.747Z,59.04
2023-01-27T22:38:56.292Z,59.47
2023-01-27T22:41:24.087Z,60.35
2023-01-27T22:43:51.988Z,60.16
2023-01-27T22:46:19.367Z,60.09
2023-01-27T22:48:47.645Z,60.14
2023-01-27T22:51:15.149Z,60.64
2023-01-27T22:53:42.603Z,61.36
2023-01-27T22:56:10.373Z,60.90
2023-01-27T22:58:37.841Z,60.41
2023-01-27T23:01:06.780Z,60.82
2023-01-27T23:03:34.809Z,60.79
2023-01-27T23:06:06.642Z,60.19
2023-01-27T23:08:35.122Z,59.09
2023-01-27T23:11:04.504Z,58.92
2023-01-27T23:13:32.533Z,59.73
2023-01-27T23:16:00.677Z,58.96
2023-01-27T23:18:28.220Z,58.97
2023-01-27T23:20:55.656Z,59.00
2023-01-27T23:23:23.379Z,59.18
2023-01-27T23:25:50.878Z,59.75
2023-01-27T23:28:19.563Z,59.46
2023-01-27T23:30:49.194Z,59.75
2023-01-27T23:33:18.185Z,60.71
2023-01-27T23:35:46.253Z,61.28
2023-01-27T23:38:30.550Z,61.18
2023-01-27T23:41:01.604Z,61.45
2023-01-27T23:43:31.054Z,60.34
2023-01-27T23:45:58.734Z,61.20
2023-01-27T23:48:26.448Z,60.34
2023-01-27T23:50:54.733Z,60.83
2023-01-27T23:53:22.388Z,60.34
2023-01-27T23:55:57.726Z,60.98
2023-01-27T23:58:26.505Z,59.80
